sensor_id;sensor_type;location;lat;lon;timestamp;pressure;altitude;pressure_sealevel;temperature;humidity
13058;BME280;6595;49.578;11.012;2022-11-20T00:00:24;979.516;;;6.31;87.0
13058;BME280;6595;49.578;11.012;2022-11-20T00:02:23;979.416;;;6.56;87.1
13058;BME280;6595;49.578;11.012;2022-11-20T00:04:23;979.331;;;6.11;87.0
13058;BME280;6595;49.578;11.012;2022-11-20T00:06:25;979.386;;;6.33;87.1
13058;BME280;6595;49.578;11.012;2022-11-20T00:08:23;979.478;;;6.20;87.0
13058;BME280;6595;49.578;11.012;2022-11-20T00:10:24;979.389;;;6.36;87.1
13058;BME280;6595;49.578;11.012;2022-11-20T00:12:23;979.281;;;6.51;87.1
13058;BME280;6595;49.578;11.012;2022-11-20T00:14:24;979.281;;;6.39;87.1
13058;BME280;6595;49.578;11.012;2022-11-20T00:16:26;979.369;;;6.51;87.1
13058;BME280;6595;49.578;11.012;2022-11-20T00:18:23;979.404;;;6.54;87.1
13058;BME280;6595;49.578;11.012;2022-11-20T00:20:24;979.403;;;6.42;87.1
13058;BME280;6595;49.578;11.012;2022-11-20T00:22:23;979.348;;;6.39;87.1
13058;BME280;6595;49.578;11.012;2022-11-20T00:24:24;979.315;;;6.47;87.1
13058;BME280;6595;49.578;11.012;2022-11-20T00:26:26;979.368;;;6.70;87.1
13058;BME280;6595;49.578;11.012;2022-11-20T00:28:24;979.315;;;6.47;87.1
13058;BME280;6595;49.578;11.012;2022-11-20T00:30:23;979.309;;;6.31;87.0
13058;BME280;6595;49.578;11.012;2022-11-20T00:32:24;979.237;;;6.58;87.1
13058;BME280;6595;49.578;11.012;2022-11-20T00:34:24;979.237;;;6.70;87.1
13058;BME280;6595;49.578;11.012;2022-11-20T00:36:25;979.243;;;6.67;87.1
13058;BME280;6595;49.578;11.012;2022-11-20T00:38:23;979.301;;;6.54;87.1
13058;BME280;6595;49.578;11.012;2022-11-20T00:40:23;979.378;;;6.51;87.1
13058;BME280;6595;49.578;11.012;2022-11-20T00:42:24;979.383;;;6.44;87.1
13058;BME280;6595;49.578;11.012;2022-11-20T00:44:23;979.324;;;6.53;87.1
13058;BME280;6595;49.578;11.012;2022-11-20T00:46:24;979.412;;;6.49;87.1
13058;BME280;6595;49.578;11.012;2022-11-20T00:48:24;979.419;;;6.30;87.0
13058;BME280;6595;49.578;11.012;2022-11-20T00:50:24;979.391;;;6.37;87.0
13058;BME280;6595;49.578;11.012;2022-11-20T00:52:23;979.457;;;6.48;87.1
13058;BME280;6595;49.578;11.012;2022-11-20T00:54:24;979.501;;;6.21;87.0
13058;BME280;6595;49.578;11.012;2022-11-20T00:56:24;979.533;;;6.40;87.1
13058;BME280;6595;49.578;11.012;2022-11-20T00:58:25;979.488;;;6.47;87.1
13058;BME280;6595;49.578;11.012;2022-11-20T01:00:24;979.445;;;6.53;87.1
13058;BME280;6595;49.578;11.012;2022-11-20T01:02:24;979.440;;;6.54;87.1
13058;BME280;6595;49.578;11.012;2022-11-20T01:04:23;979.386;;;6.42;87.1
13058;BME280;6595;49.578;11.012;2022-11-20T01:06:25;979.375;;;6.58;87.1
13058;BME280;6595;49.578;11.012;2022-11-20T01:08:24;979.374;;;6.56;87.1
13058;BME280;6595;49.578;11.012;2022-11-20T01:10:23;979.415;;;6.25;87.0
13058;BME280;6595;49.578;11.012;2022-11-20T01:12:24;979.448;;;6.15;87.0
13058;BME280;6595;49.578;11.012;2022-11-20T01:14:23;979.433;;;6.32;87.1
13058;BME280;6595;49.578;11.012;2022-11-20T01:16:26;979.449;;;6.43;87.1
13058;BME280;6595;49.578;11.012;2022-11-20T01:18:24;979.449;;;6.43;87.1
13058;BME280;6595;49.578;11.012;2022-11-20T01:20:23;979.430;;;6.31;87.0
13058;BME280;6595;49.578;11.012;2022-11-20T01:22:24;979.432;;;6.17;87.0
13058;BME280;6595;49.578;11.012;2022-11-20T01:24:24;979.421;;;6.59;87.1
13058;BME280;6595;49.578;11.012;2022-11-20T01:26:28;979.431;;;6.55;87.1
13058;BME280;6595;49.578;11.012;2022-11-20T01:28:24;979.458;;;6.54;87.1
13058;BME280;6595;49.578;11.012;2022-11-20T01:30:23;979.441;;;6.29;87.0
13058;BME280;6595;49.578;11.012;2022-11-20T01:32:24;979.471;;;6.17;87.0
13058;BME280;6595;49.578;11.012;2022-11-20T01:34:24;979.388;;;6.22;87.0
13058;BME280;6595;49.578;11.012;2022-11-20T01:36:25;979.468;;;6.60;87.1
13058;BME280;6595;49.578;11.012;2022-11-20T01:38:23;979.489;;;6.60;87.1
13058;BME280;6595;49.578;11.012;2022-11-20T01:40:24;979.503;;;6.56;87.1
13058;BME280;6595;49.578;11.012;2022-11-20T01:42:23;979.503;;;6.56;87.1
13058;BME280;6595;49.578;11.012;2022-11-20T01:44:43;979.440;;;6.60;87.1
13058;BME280;6595;49.578;11.012;2022-11-20T01:46:24;979.378;;;6.62;87.1
13058;BME280;6595;49.578;11.012;2022-11-20T01:48:26;979.390;;;6.62;87.1
13058;BME280;6595;49.578;11.012;2022-11-20T01:50:26;979.366;;;6.51;87.1
13058;BME280;6595;49.578;11.012;2022-11-20T01:52:26;979.398;;;6.26;87.0
13058;BME280;6595;49.578;11.012;2022-11-20T01:54:27;979.321;;;6.58;87.1
13058;BME280;6595;49.578;11.012;2022-11-20T01:56:25;979.340;;;6.23;87.0
13058;BME280;6595;49.578;11.012;2022-11-20T01:58:27;979.383;;;5.98;87.0
13058;BME280;6595;49.578;11.012;2022-11-20T02:00:24;979.380;;;5.86;87.0
13058;BME280;6595;49.578;11.012;2022-11-20T02:02:24;979.366;;;6.37;87.0
13058;BME280;6595;49.578;11.012;2022-11-20T02:04:24;979.359;;;6.02;87.0
13058;BME280;6595;49.578;11.012;2022-11-20T02:06:25;979.369;;;5.87;87.0
13058;BME280;6595;49.578;11.012;2022-11-20T02:08:24;979.361;;;6.11;87.0
13058;BME280;6595;49.578;11.012;2022-11-20T02:10:23;979.341;;;5.95;87.0
13058;BME280;6595;49.578;11.012;2022-11-20T02:12:24;979.318;;;5.93;87.0
13058;BME280;6595;49.578;11.012;2022-11-20T02:14:25;979.328;;;6.07;87.0
13058;BME280;6595;49.578;11.012;2022-11-20T02:16:25;979.376;;;6.12;87.0
13058;BME280;6595;49.578;11.012;2022-11-20T02:18:23;979.346;;;6.10;87.0
13058;BME280;6595;49.578;11.012;2022-11-20T02:20:24;979.350;;;5.59;87.0
13058;BME280;6595;49.578;11.012;2022-11-20T02:22:27;979.434;;;6.12;87.0
13058;BME280;6595;49.578;11.012;2022-11-20T02:24:24;979.406;;;5.82;87.0
13058;BME280;6595;49.578;11.012;2022-11-20T02:26:24;979.425;;;5.56;87.0
13058;BME280;6595;49.578;11.012;2022-11-20T02:28:23;979.364;;;5.83;87.0
13058;BME280;6595;49.578;11.012;2022-11-20T02:30:24;979.261;;;5.98;87.0
13058;BME280;6595;49.578;11.012;2022-11-20T02:32:26;979.282;;;5.86;87.0
13058;BME280;6595;49.578;11.012;2022-11-20T02:34:24;979.270;;;6.36;87.1
13058;BME280;6595;49.578;11.012;2022-11-20T02:36:26;979.274;;;6.25;87.0
13058;BME280;6595;49.578;11.012;2022-11-20T02:38:23;979.240;;;6.15;87.0
13058;BME280;6595;49.578;11.012;2022-11-20T02:40:24;979.207;;;6.05;87.0
13058;BME280;6595;49.578;11.012;2022-11-20T02:42:24;979.185;;;6.05;87.0
13058;BME280;6595;49.578;11.012;2022-11-20T02:44:23;979.229;;;6.23;87.0
13058;BME280;6595;49.578;11.012;2022-11-20T02:46:24;979.239;;;6.46;87.1
13058;BME280;6595;49.578;11.012;2022-11-20T02:48:23;979.274;;;6.56;87.1
13058;BME280;6595;49.578;11.012;2022-11-20T02:50:24;979.307;;;6.64;87.1
13058;BME280;6595;49.578;11.012;2022-11-20T02:52:24;979.278;;;6.66;87.1
13058;BME280;6595;49.578;11.012;2022-11-20T02:54:24;979.282;;;6.63;87.1
13058;BME280;6595;49.578;11.012;2022-11-20T02:56:24;979.294;;;6.35;87.1
13058;BME280;6595;49.578;11.012;2022-11-20T02:58:23;979.350;;;6.06;87.0
13058;BME280;6595;49.578;11.012;2022-11-20T03:00:24;979.268;;;5.79;87.0
13058;BME280;6595;49.578;11.012;2022-11-20T03:02:23;979.206;;;6.00;87.0
13058;BME280;6595;49.578;11.012;2022-11-20T03:04:24;979.209;;;6.18;87.0
13058;BME280;6595;49.578;11.012;2022-11-20T03:06:24;979.200;;;6.16;87.0
13058;BME280;6595;49.578;11.012;2022-11-20T03:08:24;979.168;;;6.50;87.1
13058;BME280;6595;49.578;11.012;2022-11-20T03:10:23;979.176;;;6.39;87.1
13058;BME280;6595;49.578;11.012;2022-11-20T03:12:24;979.094;;;6.46;87.1
13058;BME280;6595;49.578;11.012;2022-11-20T03:14:24;979.096;;;6.42;87.1
13058;BME280;6595;49.578;11.012;2022-11-20T03:16:24;979.091;;;6.51;87.1
13058;BME280;6595;49.578;11.012;2022-11-20T03:18:23;979.091;;;6.51;87.1
13058;BME280;6595;49.578;11.012;2022-11-20T03:20:24;979.060;;;6.34;87.1
13058;BME280;6595;49.578;11.012;2022-11-20T03:22:23;979.073;;;6.54;87.1
13058;BME280;6595;49.578;11.012;2022-11-20T03:24:24;979.023;;;6.55;87.1
13058;BME280;6595;49.578;11.012;2022-11-20T03:26:25;978.954;;;6.21;87.0
13058;BME280;6595;49.578;11.012;2022-11-20T03:28:24;978.939;;;6.42;87.1
13058;BME280;6595;49.578;11.012;2022-11-20T03:30:23;978.962;;;6.61;87.1
13058;BME280;6595;49.578;11.012;2022-11-20T03:32:24;978.962;;;6.61;87.1
13058;BME280;6595;49.578;11.012;2022-11-20T03:34:24;979.008;;;5.93;87.0
13058;BME280;6595;49.578;11.012;2022-11-20T03:36:24;978.991;;;6.15;87.0
13058;BME280;6595;49.578;11.012;2022-11-20T03:38:24;978.975;;;6.26;87.0
13058;BME280;6595;49.578;11.012;2022-11-20T03:40:23;978.996;;;6.50;87.1
13058;BME280;6595;49.578;11.012;2022-11-20T03:42:24;979.000;;;6.54;87.1
13058;BME280;6595;49.578;11.012;2022-11-20T03:44:23;978.986;;;6.41;87.1
13058;BME280;6595;49.578;11.012;2022-11-20T03:46:24;979.040;;;6.33;87.1
13058;BME280;6595;49.578;11.012;2022-11-20T03:48:23;979.057;;;6.39;87.1
13058;BME280;6595;49.578;11.012;2022-11-20T03:50:23;979.021;;;6.46;87.1
13058;BME280;6595;49.578;11.012;2022-11-20T03:52:24;978.966;;;6.53;87.1
13058;BME280;6595;49.578;11.012;2022-11-20T03:54:23;978.911;;;6.45;87.1
13058;BME280;6595;49.578;11.012;2022-11-20T03:56:27;978.894;;;6.33;87.1
13058;BME280;6595;49.578;11.012;2022-11-20T03:58:23;978.861;;;6.63;87.1
13058;BME280;6595;49.578;11.012;2022-11-20T04:00:23;978.872;;;6.34;87.1
13058;BME280;6595;49.578;11.012;2022-11-20T04:02:23;978.827;;;6.39;87.1
13058;BME280;6595;49.578;11.012;2022-11-20T04:04:23;978.827;;;6.39;87.1
13058;BME280;6595;49.578;11.012;2022-11-20T04:06:25;978.854;;;6.43;87.1
13058;BME280;6595;49.578;11.012;2022-11-20T04:08:23;978.851;;;6.39;87.1
13058;BME280;6595;49.578;11.012;2022-11-20T04:10:23;978.785;;;6.46;87.1
13058;BME280;6595;49.578;11.012;2022-11-20T04:12:23;978.783;;;6.56;87.1
13058;BME280;6595;49.578;11.012;2022-11-20T04:14:24;978.783;;;6.56;87.1
13058;BME280;6595;49.578;11.012;2022-11-20T04:16:25;978.822;;;6.59;87.1
13058;BME280;6595;49.578;11.012;2022-11-20T04:18:23;978.838;;;6.62;87.1
13058;BME280;6595;49.578;11.012;2022-11-20T04:20:24;978.848;;;6.57;87.1
13058;BME280;6595;49.578;11.012;2022-11-20T04:22:24;978.824;;;6.58;87.1
13058;BME280;6595;49.578;11.012;2022-11-20T04:24:23;978.830;;;6.56;87.1
13058;BME280;6595;49.578;11.012;2022-11-20T04:26:25;978.821;;;6.55;87.1
13058;BME280;6595;49.578;11.012;2022-11-20T04:28:24;978.782;;;6.37;87.0
13058;BME280;6595;49.578;11.012;2022-11-20T04:30:24;978.802;;;6.50;87.1
13058;BME280;6595;49.578;11.012;2022-11-20T04:32:24;978.793;;;6.43;87.1
13058;BME280;6595;49.578;11.012;2022-11-20T04:34:24;978.767;;;6.31;87.0
13058;BME280;6595;49.578;11.012;2022-11-20T04:36:26;978.788;;;6.17;87.0
13058;BME280;6595;49.578;11.012;2022-11-20T04:38:24;978.789;;;6.15;87.0
13058;BME280;6595;49.578;11.012;2022-11-20T04:40:23;978.777;;;6.23;87.0
13058;BME280;6595;49.578;11.012;2022-11-20T04:42:24;978.815;;;6.29;87.0
13058;BME280;6595;49.578;11.012;2022-11-20T04:44:23;978.764;;;6.24;87.0
13058;BME280;6595;49.578;11.012;2022-11-20T04:46:25;978.799;;;6.11;87.0
13058;BME280;6595;49.578;11.012;2022-11-20T04:48:24;978.805;;;5.86;87.0
13058;BME280;6595;49.578;11.012;2022-11-20T04:50:24;978.795;;;6.24;87.0
13058;BME280;6595;49.578;11.012;2022-11-20T04:52:23;978.773;;;6.35;87.1
13058;BME280;6595;49.578;11.012;2022-11-20T04:54:24;978.721;;;6.08;87.0
13058;BME280;6595;49.578;11.012;2022-11-20T04:56:24;978.776;;;6.28;87.0
13058;BME280;6595;49.578;11.012;2022-11-20T04:58:24;978.790;;;6.21;87.0
13058;BME280;6595;49.578;11.012;2022-11-20T05:00:24;978.776;;;6.40;87.1
13058;BME280;6595;49.578;11.012;2022-11-20T05:02:24;978.769;;;6.36;87.1
13058;BME280;6595;49.578;11.012;2022-11-20T05:04:24;978.743;;;6.32;87.1
13058;BME280;6595;49.578;11.012;2022-11-20T05:06:23;978.684;;;6.39;87.1
13058;BME280;6595;49.578;11.012;2022-11-20T05:08:24;978.724;;;6.26;87.0
13058;BME280;6595;49.578;11.012;2022-11-20T05:10:24;978.693;;;6.22;87.0
13058;BME280;6595;49.578;11.012;2022-11-20T05:12:24;978.705;;;6.30;87.0
13058;BME280;6595;49.578;11.012;2022-11-20T05:14:24;978.721;;;6.53;87.1
13058;BME280;6595;49.578;11.012;2022-11-20T05:16:24;978.739;;;6.63;87.1
13058;BME280;6595;49.578;11.012;2022-11-20T05:18:24;978.729;;;6.57;87.1
13058;BME280;6595;49.578;11.012;2022-11-20T05:20:24;978.731;;;6.68;87.1
13058;BME280;6595;49.578;11.012;2022-11-20T05:22:24;978.754;;;6.51;87.1
13058;BME280;6595;49.578;11.012;2022-11-20T05:24:24;978.751;;;6.48;87.1
13058;BME280;6595;49.578;11.012;2022-11-20T05:26:24;978.718;;;6.49;87.1
13058;BME280;6595;49.578;11.012;2022-11-20T05:28:23;978.690;;;6.53;87.1
13058;BME280;6595;49.578;11.012;2022-11-20T05:30:24;978.661;;;6.53;87.1
13058;BME280;6595;49.578;11.012;2022-11-20T05:32:24;978.571;;;6.49;87.1
13058;BME280;6595;49.578;11.012;2022-11-20T05:34:24;978.541;;;6.56;87.1
13058;BME280;6595;49.578;11.012;2022-11-20T05:36:24;978.561;;;6.31;87.0
13058;BME280;6595;49.578;11.012;2022-11-20T05:38:24;978.600;;;6.49;87.1
13058;BME280;6595;49.578;11.012;2022-11-20T05:40:24;978.581;;;6.40;87.1
13058;BME280;6595;49.578;11.012;2022-11-20T05:42:23;978.558;;;6.40;87.1
13058;BME280;6595;49.578;11.012;2022-11-20T05:44:24;978.494;;;6.34;87.1
13058;BME280;6595;49.578;11.012;2022-11-20T05:46:24;978.465;;;6.58;87.1
13058;BME280;6595;49.578;11.012;2022-11-20T05:48:23;978.493;;;6.32;87.1
13058;BME280;6595;49.578;11.012;2022-11-20T05:50:24;978.491;;;6.51;87.1
13058;BME280;6595;49.578;11.012;2022-11-20T05:52:23;978.476;;;6.47;87.1
13058;BME280;6595;49.578;11.012;2022-11-20T05:54:24;978.467;;;6.44;87.1
13058;BME280;6595;49.578;11.012;2022-11-20T05:56:24;978.410;;;6.56;87.1
13058;BME280;6595;49.578;11.012;2022-11-20T05:58:24;978.503;;;6.37;87.0
13058;BME280;6595;49.578;11.012;2022-11-20T06:00:23;978.515;;;6.52;87.1
13058;BME280;6595;49.578;11.012;2022-11-20T06:02:24;978.536;;;6.43;87.1
13058;BME280;6595;49.578;11.012;2022-11-20T06:04:23;978.452;;;5.93;87.0
13058;BME280;6595;49.578;11.012;2022-11-20T06:06:24;978.454;;;6.49;87.1
13058;BME280;6595;49.578;11.012;2022-11-20T06:08:23;978.433;;;6.34;87.1
13058;BME280;6595;49.578;11.012;2022-11-20T06:10:24;978.378;;;6.66;87.1
13058;BME280;6595;49.578;11.012;2022-11-20T06:12:23;978.410;;;6.61;87.1
13058;BME280;6595;49.578;11.012;2022-11-20T06:14:24;978.470;;;6.48;87.1
13058;BME280;6595;49.578;11.012;2022-11-20T06:16:24;978.417;;;6.65;87.1
13058;BME280;6595;49.578;11.012;2022-11-20T06:18:25;978.448;;;6.36;87.0
13058;BME280;6595;49.578;11.012;2022-11-20T06:20:23;978.479;;;6.13;87.0
13058;BME280;6595;49.578;11.012;2022-11-20T06:22:24;978.494;;;6.42;87.1
13058;BME280;6595;49.578;11.012;2022-11-20T06:24:23;978.514;;;6.19;87.0
13058;BME280;6595;49.578;11.012;2022-11-20T06:26:25;978.535;;;6.59;87.1
13058;BME280;6595;49.578;11.012;2022-11-20T06:28:24;978.535;;;6.71;87.1
13058;BME280;6595;49.578;11.012;2022-11-20T06:30:24;978.548;;;6.75;87.1
13058;BME280;6595;49.578;11.012;2022-11-20T06:32:23;978.524;;;6.46;87.1
13058;BME280;6595;49.578;11.012;2022-11-20T06:34:23;978.453;;;6.54;87.1
13058;BME280;6595;49.578;11.012;2022-11-20T06:36:23;978.467;;;6.56;87.1
13058;BME280;6595;49.578;11.012;2022-11-20T06:38:24;978.522;;;6.25;87.0
13058;BME280;6595;49.578;11.012;2022-11-20T06:40:24;978.554;;;6.34;87.1
13058;BME280;6595;49.578;11.012;2022-11-20T06:42:23;978.546;;;6.20;87.0
13058;BME280;6595;49.578;11.012;2022-11-20T06:44:24;978.581;;;6.31;87.0
13058;BME280;6595;49.578;11.012;2022-11-20T06:46:23;978.551;;;6.50;87.1
13058;BME280;6595;49.578;11.012;2022-11-20T06:48:25;978.551;;;6.50;87.1
13058;BME280;6595;49.578;11.012;2022-11-20T06:50:23;978.581;;;6.39;87.1
13058;BME280;6595;49.578;11.012;2022-11-20T06:52:24;978.581;;;6.39;87.1
13058;BME280;6595;49.578;11.012;2022-11-20T06:54:24;978.603;;;6.54;87.1
13058;BME280;6595;49.578;11.012;2022-11-20T06:56:24;978.608;;;6.52;87.1
13058;BME280;6595;49.578;11.012;2022-11-20T06:58:26;978.580;;;6.57;87.1
13058;BME280;6595;49.578;11.012;2022-11-20T07:00:24;978.573;;;6.61;87.1
13058;BME280;6595;49.578;11.012;2022-11-20T07:02:23;978.621;;;6.56;87.1
13058;BME280;6595;49.578;11.012;2022-11-20T07:04:23;978.618;;;6.39;87.1
13058;BME280;6595;49.578;11.012;2022-11-20T07:06:24;978.594;;;6.35;87.1
13058;BME280;6595;49.578;11.012;2022-11-20T07:08:24;978.646;;;6.48;87.1
13058;BME280;6595;49.578;11.012;2022-11-20T07:10:25;978.628;;;6.72;87.1
13058;BME280;6595;49.578;11.012;2022-11-20T07:12:24;978.695;;;6.69;87.1
13058;BME280;6595;49.578;11.012;2022-11-20T07:14:24;978.676;;;6.64;87.1
13058;BME280;6595;49.578;11.012;2022-11-20T07:16:24;978.705;;;6.71;87.1
13058;BME280;6595;49.578;11.012;2022-11-20T07:18:23;978.693;;;6.93;87.1
13058;BME280;6595;49.578;11.012;2022-11-20T07:20:23;978.680;;;6.85;87.1
13058;BME280;6595;49.578;11.012;2022-11-20T07:22:24;978.683;;;6.98;87.1
13058;BME280;6595;49.578;11.012;2022-11-20T07:24:24;978.734;;;6.91;87.1
13058;BME280;6595;49.578;11.012;2022-11-20T07:26:24;978.683;;;6.94;87.1
13058;BME280;6595;49.578;11.012;2022-11-20T07:28:23;978.689;;;7.01;87.1
13058;BME280;6595;49.578;11.012;2022-11-20T07:30:24;978.705;;;7.12;87.1
13058;BME280;6595;49.578;11.012;2022-11-20T07:32:23;978.727;;;7.01;87.1
13058;BME280;6595;49.578;11.012;2022-11-20T07:34:23;978.658;;;7.11;87.1
13058;BME280;6595;49.578;11.012;2022-11-20T07:36:24;978.699;;;6.89;87.1
13058;BME280;6595;49.578;11.012;2022-11-20T07:38:23;978.731;;;6.44;87.1
13058;BME280;6595;49.578;11.012;2022-11-20T07:40:24;978.785;;;6.46;87.1
13058;BME280;6595;49.578;11.012;2022-11-20T07:42:23;978.831;;;6.72;87.1
13058;BME280;6595;49.578;11.012;2022-11-20T07:44:24;978.831;;;6.72;87.1
13058;BME280;6595;49.578;11.012;2022-11-20T07:46:23;978.778;;;7.11;87.1
13058;BME280;6595;49.578;11.012;2022-11-20T07:48:24;978.755;;;7.05;87.1
13058;BME280;6595;49.578;11.012;2022-11-20T07:50:23;978.782;;;7.21;87.2
13058;BME280;6595;49.578;11.012;2022-11-20T07:52:24;978.833;;;6.92;87.1
13058;BME280;6595;49.578;11.012;2022-11-20T07:54:24;978.847;;;6.68;87.1
13058;BME280;6595;49.578;11.012;2022-11-20T07:56:24;978.809;;;6.66;87.1
13058;BME280;6595;49.578;11.012;2022-11-20T07:58:23;978.826;;;7.09;87.1
13058;BME280;6595;49.578;11.012;2022-11-20T08:00:24;978.724;;;7.11;87.1
13058;BME280;6595;49.578;11.012;2022-11-20T08:02:24;978.786;;;7.11;87.1
13058;BME280;6595;49.578;11.012;2022-11-20T08:04:24;978.758;;;7.32;87.2
13058;BME280;6595;49.578;11.012;2022-11-20T08:06:24;978.781;;;6.97;87.1
13058;BME280;6595;49.578;11.012;2022-11-20T08:08:24;978.767;;;6.80;87.1
13058;BME280;6595;49.578;11.012;2022-11-20T08:10:24;978.733;;;7.15;87.1
13058;BME280;6595;49.578;11.012;2022-11-20T08:12:24;978.749;;;7.21;87.2
13058;BME280;6595;49.578;11.012;2022-11-20T08:14:24;978.732;;;7.32;87.2
13058;BME280;6595;49.578;11.012;2022-11-20T08:16:23;978.765;;;7.18;87.1
13058;BME280;6595;49.578;11.012;2022-11-20T08:18:24;978.761;;;6.79;87.1
13058;BME280;6595;49.578;11.012;2022-11-20T08:20:23;978.773;;;7.04;87.1
13058;BME280;6595;49.578;11.012;2022-11-20T08:22:23;978.716;;;7.19;87.1
13058;BME280;6595;49.578;11.012;2022-11-20T08:24:23;978.696;;;7.16;87.1
13058;BME280;6595;49.578;11.012;2022-11-20T08:26:24;978.725;;;7.41;87.2
13058;BME280;6595;49.578;11.012;2022-11-20T08:28:23;978.726;;;7.57;87.2
13058;BME280;6595;49.578;11.012;2022-11-20T08:30:24;978.733;;;7.53;87.2
13058;BME280;6595;49.578;11.012;2022-11-20T08:32:23;978.712;;;7.20;87.1
13058;BME280;6595;49.578;11.012;2022-11-20T08:34:24;978.722;;;7.21;87.2
13058;BME280;6595;49.578;11.012;2022-11-20T08:36:24;978.655;;;7.46;87.2
13058;BME280;6595;49.578;11.012;2022-11-20T08:38:23;978.610;;;7.54;87.2
13058;BME280;6595;49.578;11.012;2022-11-20T08:40:23;978.625;;;7.48;87.2
13058;BME280;6595;49.578;11.012;2022-11-20T08:42:24;978.618;;;7.58;87.2
13058;BME280;6595;49.578;11.012;2022-11-20T08:44:23;978.607;;;7.50;87.2
13058;BME280;6595;49.578;11.012;2022-11-20T08:46:25;978.652;;;7.61;87.2
13058;BME280;6595;49.578;11.012;2022-11-20T08:48:24;978.725;;;7.38;87.2
13058;BME280;6595;49.578;11.012;2022-11-20T08:50:24;978.678;;;7.50;87.2
13058;BME280;6595;49.578;11.012;2022-11-20T08:52:23;978.676;;;7.48;87.2
13058;BME280;6595;49.578;11.012;2022-11-20T08:54:24;978.703;;;7.68;87.2
13058;BME280;6595;49.578;11.012;2022-11-20T08:56:24;978.649;;;7.66;87.2
13058;BME280;6595;49.578;11.012;2022-11-20T08:58:23;978.692;;;7.70;87.2
13058;BME280;6595;49.578;11.012;2022-11-20T09:00:23;978.665;;;7.62;87.2
13058;BME280;6595;49.578;11.012;2022-11-20T09:02:24;978.671;;;7.56;87.2
13058;BME280;6595;49.578;11.012;2022-11-20T09:04:24;978.666;;;7.45;87.2
13058;BME280;6595;49.578;11.012;2022-11-20T09:06:24;978.705;;;7.20;87.2
13058;BME280;6595;49.578;11.012;2022-11-20T09:08:24;978.681;;;7.31;87.2
13058;BME280;6595;49.578;11.012;2022-11-20T09:10:23;978.669;;;7.42;87.2
13058;BME280;6595;49.578;11.012;2022-11-20T09:12:24;978.617;;;7.61;87.2
13058;BME280;6595;49.578;11.012;2022-11-20T09:14:24;978.617;;;7.61;87.2
13058;BME280;6595;49.578;11.012;2022-11-20T09:16:23;978.664;;;7.62;87.2
13058;BME280;6595;49.578;11.012;2022-11-20T09:18:24;978.630;;;7.51;87.2
13058;BME280;6595;49.578;11.012;2022-11-20T09:20:24;978.630;;;7.51;87.2
13058;BME280;6595;49.578;11.012;2022-11-20T09:22:23;978.669;;;7.46;87.2
13058;BME280;6595;49.578;11.012;2022-11-20T09:24:24;978.650;;;6.94;87.1
13058;BME280;6595;49.578;11.012;2022-11-20T09:26:23;978.549;;;7.25;87.2
13058;BME280;6595;49.578;11.012;2022-11-20T09:28:24;978.632;;;7.15;87.1
13058;BME280;6595;49.578;11.012;2022-11-20T09:30:25;978.580;;;7.09;87.1
13058;BME280;6595;49.578;11.012;2022-11-20T09:32:23;978.602;;;7.30;87.2
13058;BME280;6595;49.578;11.012;2022-11-20T09:34:23;978.596;;;7.01;87.1
13058;BME280;6595;49.578;11.012;2022-11-20T09:36:23;978.619;;;6.84;87.1
13058;BME280;6595;49.578;11.012;2022-11-20T09:38:24;978.548;;;6.75;87.1
13058;BME280;6595;49.578;11.012;2022-11-20T09:40:25;978.554;;;7.34;87.2
13058;BME280;6595;49.578;11.012;2022-11-20T09:42:32;978.613;;;7.14;87.1
13058;BME280;6595;49.578;11.012;2022-11-20T09:44:37;978.619;;;7.18;87.1
13058;BME280;6595;49.578;11.012;2022-11-20T09:46:28;978.615;;;7.52;87.2
13058;BME280;6595;49.578;11.012;2022-11-20T09:48:32;978.628;;;7.69;87.2
13058;BME280;6595;49.578;11.012;2022-11-20T09:50:29;978.651;;;7.67;87.2
13058;BME280;6595;49.578;11.012;2022-11-20T09:52:33;978.733;;;7.81;87.2
13058;BME280;6595;49.578;11.012;2022-11-20T09:54:29;978.693;;;7.80;87.2
13058;BME280;6595;49.578;11.012;2022-11-20T09:56:25;978.718;;;7.46;87.2
13058;BME280;6595;49.578;11.012;2022-11-20T09:58:30;978.802;;;7.27;87.2
13058;BME280;6595;49.578;11.012;2022-11-20T10:00:24;978.704;;;7.53;87.2
13058;BME280;6595;49.578;11.012;2022-11-20T10:02:28;978.746;;;7.41;87.2
13058;BME280;6595;49.578;11.012;2022-11-20T10:04:24;978.765;;;7.36;87.2
13058;BME280;6595;49.578;11.012;2022-11-20T10:06:29;978.680;;;7.37;87.2
13058;BME280;6595;49.578;11.012;2022-11-20T10:08:25;978.655;;;7.45;87.2
13058;BME280;6595;49.578;11.012;2022-11-20T10:10:30;978.694;;;7.35;87.2
13058;BME280;6595;49.578;11.012;2022-11-20T10:12:29;978.634;;;7.37;87.2
13058;BME280;6595;49.578;11.012;2022-11-20T10:14:31;978.582;;;7.44;87.2
13058;BME280;6595;49.578;11.012;2022-11-20T10:16:31;978.587;;;7.05;87.1
13058;BME280;6595;49.578;11.012;2022-11-20T10:18:36;978.628;;;7.15;87.1
13058;BME280;6595;49.578;11.012;2022-11-20T10:20:29;978.589;;;7.72;87.2
13058;BME280;6595;49.578;11.012;2022-11-20T10:22:34;978.574;;;7.71;87.2
13058;BME280;6595;49.578;11.012;2022-11-20T10:24:33;978.532;;;7.69;87.2
13058;BME280;6595;49.578;11.012;2022-11-20T10:26:29;978.472;;;7.81;87.2
13058;BME280;6595;49.578;11.012;2022-11-20T10:28:33;978.410;;;7.46;87.2
13058;BME280;6595;49.578;11.012;2022-11-20T10:30:24;978.369;;;7.37;87.2
13058;BME280;6595;49.578;11.012;2022-11-20T10:32:30;978.371;;;7.82;87.2
13058;BME280;6595;49.578;11.012;2022-11-20T10:34:26;978.435;;;7.76;87.2
13058;BME280;6595;49.578;11.012;2022-11-20T10:36:25;978.415;;;7.56;87.2
13058;BME280;6595;49.578;11.012;2022-11-20T10:38:26;978.415;;;7.56;87.2
13058;BME280;6595;49.578;11.012;2022-11-20T10:40:29;978.395;;;7.77;87.2
13058;BME280;6595;49.578;11.012;2022-11-20T10:42:29;978.389;;;7.84;87.2
13058;BME280;6595;49.578;11.012;2022-11-20T10:44:27;978.328;;;8.01;87.2
13058;BME280;6595;49.578;11.012;2022-11-20T10:46:25;978.284;;;8.02;87.2
13058;BME280;6595;49.578;11.012;2022-11-20T10:48:25;978.259;;;8.11;87.3
13058;BME280;6595;49.578;11.012;2022-11-20T10:50:24;978.175;;;8.13;87.3
13058;BME280;6595;49.578;11.012;2022-11-20T10:52:30;978.279;;;8.21;87.3
13058;BME280;6595;49.578;11.012;2022-11-20T10:54:32;978.272;;;7.55;87.2
13058;BME280;6595;49.578;11.012;2022-11-20T10:56:30;978.189;;;7.95;87.2
13058;BME280;6595;49.578;11.012;2022-11-20T10:58:31;978.226;;;7.95;87.2
13058;BME280;6595;49.578;11.012;2022-11-20T11:00:24;978.226;;;7.95;87.2